createdAt,value
2023-02-26T00:01:25.058Z,1.70
2023-02-26T00:03:53.848Z,1.40
2023-02-26T00:06:21.702Z,1.85
2023-02-26T00:08:48.448Z,2.00
2023-02-26T00:11:15.680Z,1.67
2023-02-26T00:13:44.265Z,1.60
2023-02-26T00:16:20.410Z,1.45
2023-02-26T00:18:47.730Z,1.10
2023-02-26T00:21:17.880Z,1.40
2023-02-26T00:23:45.112Z,1.80
2023-02-26T00:26:12.034Z,0.90
2023-02-26T00:28:39.395Z,1.67
2023-02-26T00:31:06.633Z,1.30
2023-02-26T00:33:33.865Z,2.20
2023-02-26T00:36:16.050Z,1.65
2023-02-26T00:38:45.088Z,1.20
2023-02-26T00:41:12.206Z,1.33
2023-02-26T00:43:39.187Z,1.10
2023-02-26T00:46:23.897Z,1.30
2023-02-26T00:49:24.293Z,1.48
2023-02-26T00:51:58.992Z,1.83
2023-02-26T00:54:28.345Z,1.48
2023-02-26T00:56:56.432Z,1.40
2023-02-26T00:59:24.102Z,1.40
2023-02-26T01:01:51.948Z,1.48
2023-02-26T01:04:21.757Z,1.30
2023-02-26T01:06:54.236Z,1.50
2023-02-26T01:09:31.461Z,1.50
2023-02-26T01:12:05.083Z,1.67
2023-02-26T01:14:32.888Z,1.30
2023-02-26T01:17:25.802Z,2.08
2023-02-26T01:20:06.478Z,0.82
2023-02-26T01:23:16.863Z,1.30
2023-02-26T01:26:04.949Z,1.35
2023-02-26T01:28:32.196Z,1.23
2023-02-26T01:31:05.700Z,1.20
2023-02-26T01:33:38.352Z,1.13
2023-02-26T01:36:09.425Z,1.63
2023-02-26T01:38:55.097Z,1.63
2023-02-26T01:41:39.202Z,1.45
2023-02-26T01:44:11.698Z,1.50
2023-02-26T01:47:12.784Z,1.15
2023-02-26T01:49:39.964Z,1.40
2023-02-26T01:52:27.626Z,1.25
2023-02-26T01:54:54.421Z,1.35
2023-02-26T01:57:22.292Z,1.27
2023-02-26T01:59:52.227Z,1.48
2023-02-26T02:02:22.722Z,1.65
2023-02-26T02:04:50.746Z,1.13
2023-02-26T02:07:18.929Z,1.63
2023-02-26T02:09:47.653Z,1.38
2023-02-26T02:12:38.193Z,1.25
2023-02-26T02:15:05.094Z,1.60
2023-02-26T02:18:00.520Z,1.42
2023-02-26T02:21:01.021Z,1.92
2023-02-26T02:23:45.911Z,1.63
2023-02-26T02:26:25.305Z,1.55
2023-02-26T02:29:10.715Z,1.35
2023-02-26T02:32:02.341Z,1.75
2023-02-26T02:34:42.128Z,1.55
2023-02-26T02:37:21.813Z,1.40
2023-02-26T02:40:08.275Z,1.60
2023-02-26T02:42:46.077Z,1.80
2023-02-26T02:45:17.535Z,1.90
2023-02-26T02:47:50.333Z,1.90
2023-02-26T02:50:34.156Z,1.60
2023-02-26T02:53:23.007Z,1.80
2023-02-26T02:56:12.912Z,1.58
2023-02-26T02:58:44.751Z,0.85
2023-02-26T03:01:15.704Z,1.55
2023-02-26T03:03:56.409Z,1.55
2023-02-26T03:06:24.528Z,1.77
2023-02-26T03:08:53.164Z,1.50
2023-02-26T03:11:20.875Z,1.80
2023-02-26T03:13:48.619Z,1.92
2023-02-26T03:16:36.814Z,2.03
2023-02-26T03:19:44.271Z,1.45
2023-02-26T03:22:28.896Z,2.00
2023-02-26T03:25:04.072Z,1.30
2023-02-26T03:27:46.251Z,2.10
2023-02-26T03:30:22.636Z,2.03
2023-02-26T03:33:16.032Z,1.60
2023-02-26T03:35:54.907Z,2.13
2023-02-26T03:38:33.616Z,1.83
2023-02-26T03:41:08.210Z,1.90
2023-02-26T03:43:46.308Z,1.83
2023-02-26T03:46:18.253Z,1.63
2023-02-26T03:48:48.292Z,1.45
2023-02-26T03:51:15.493Z,1.60
2023-02-26T03:53:51.681Z,2.10
2023-02-26T03:56:40.242Z,1.65
2023-02-26T03:59:07.196Z,1.70
2023-02-26T04:01:46.125Z,1.60
2023-02-26T04:04:31.502Z,0.85
2023-02-26T04:06:58.929Z,1.40
2023-02-26T04:09:26.564Z,1.90
2023-02-26T04:11:54.809Z,1.42
2023-02-26T04:14:22.030Z,1.30
2023-02-26T04:16:49.043Z,1.45
2023-02-26T04:19:15.904Z,1.30
2023-02-26T04:21:42.646Z,1.50
2023-02-26T04:24:09.726Z,1.20
2023-02-26T04:26:36.523Z,0.80
2023-02-26T04:29:03.597Z,0.98
2023-02-26T04:31:30.449Z,0.85
2023-02-26T04:33:57.232Z,1.40
2023-02-26T04:36:24.462Z,1.00
2023-02-26T04:38:51.424Z,0.93
2023-02-26T04:41:18.254Z,1.13
2023-02-26T04:43:44.993Z,1.02
2023-02-26T04:46:11.871Z,1.15
2023-02-26T04:48:38.726Z,1.10
2023-02-26T04:51:05.767Z,0.98
2023-02-26T04:53:32.727Z,0.88
2023-02-26T04:55:59.526Z,1.10
2023-02-26T04:58:27.339Z,1.08
2023-02-26T05:00:55.461Z,0.80
2023-02-26T05:03:22.681Z,1.20
2023-02-26T05:05:49.605Z,0.80
2023-02-26T05:08:16.400Z,1.10
2023-02-26T05:10:43.139Z,1.35
2023-02-26T05:13:09.914Z,1.13
2023-02-26T05:15:36.867Z,1.20
2023-02-26T05:18:04.337Z,1.13
2023-02-26T05:20:31.164Z,1.00
2023-02-26T05:22:57.967Z,1.00
2023-02-26T05:25:24.762Z,0.90
2023-02-26T05:27:51.622Z,0.80
2023-02-26T05:30:18.544Z,0.90
2023-02-26T05:32:45.888Z,1.00
2023-02-26T05:35:13.092Z,1.20
2023-02-26T05:37:39.864Z,1.05
2023-02-26T05:40:11.946Z,1.20
2023-02-26T05:42:39.658Z,1.10
2023-02-26T05:45:07.464Z,1.30
2023-02-26T05:47:35.004Z,0.98
2023-02-26T05:50:02.006Z,1.17
2023-02-26T05:52:28.873Z,1.00
2023-02-26T05:54:56.194Z,0.80
2023-02-26T05:57:23.694Z,1.10
2023-02-26T05:59:51.265Z,1.20
2023-02-26T06:02:18.099Z,0.95
2023-02-26T06:04:45.140Z,0.90
2023-02-26T06:07:12.065Z,0.90
2023-02-26T06:09:39.366Z,1.40
2023-02-26T06:12:06.762Z,1.38
2023-02-26T06:14:34.788Z,1.05
2023-02-26T06:17:02.531Z,1.15
2023-02-26T06:19:29.310Z,0.93
2023-02-26T06:21:56.188Z,0.63
2023-02-26T06:24:23.208Z,0.65
2023-02-26T06:26:50.079Z,0.90
2023-02-26T06:29:18.445Z,0.70
2023-02-26T06:31:45.751Z,0.82
2023-02-26T06:34:12.661Z,1.10
2023-02-26T06:36:39.715Z,0.90
2023-02-26T06:39:07.739Z,0.77
2023-02-26T06:41:34.933Z,0.60
2023-02-26T06:44:01.722Z,1.00
2023-02-26T06:46:28.608Z,0.90
2023-02-26T06:48:55.692Z,1.10
2023-02-26T06:51:22.660Z,0.80
2023-02-26T06:53:49.506Z,1.00
2023-02-26T06:56:16.283Z,0.82
2023-02-26T06:58:43.068Z,1.00
2023-02-26T07:01:10.640Z,0.85
2023-02-26T07:03:37.563Z,1.08
2023-02-26T07:06:26.009Z,1.10
2023-02-26T07:08:53.808Z,1.10
2023-02-26T07:11:20.742Z,1.00
2023-02-26T07:13:47.675Z,1.00
2023-02-26T07:16:14.552Z,0.88
2023-02-26T07:18:41.304Z,0.80
2023-02-26T07:21:08.106Z,0.77
2023-02-26T07:23:35.162Z,0.80
2023-02-26T07:26:02.381Z,1.00
2023-02-26T07:28:29.379Z,0.80
2023-02-26T07:30:57.021Z,0.82
2023-02-26T07:33:24.104Z,1.25
2023-02-26T07:35:50.860Z,0.82
2023-02-26T07:38:19.555Z,0.80
2023-02-26T07:40:46.969Z,0.70
2023-02-26T07:43:13.959Z,1.00
2023-02-26T07:45:40.826Z,0.70
2023-02-26T07:48:07.898Z,0.90
2023-02-26T07:50:34.959Z,0.60
2023-02-26T07:53:01.854Z,1.13
2023-02-26T07:55:28.871Z,0.68
2023-02-26T07:57:55.764Z,0.70
2023-02-26T08:00:22.831Z,0.80
2023-02-26T08:02:49.825Z,0.80
2023-02-26T08:05:16.748Z,0.80
2023-02-26T08:07:43.677Z,0.70
2023-02-26T08:10:11.952Z,0.80
2023-02-26T08:12:38.862Z,0.80
2023-02-26T08:15:06.759Z,0.90
2023-02-26T08:17:34.038Z,0.80
2023-02-26T08:20:00.820Z,1.13
2023-02-26T08:22:27.839Z,0.80
2023-02-26T08:24:54.657Z,1.00
2023-02-26T08:27:21.738Z,1.10
2023-02-26T08:29:50.339Z,0.80
2023-02-26T08:32:19.852Z,0.70
2023-02-26T08:34:47.268Z,0.80
2023-02-26T08:37:14.332Z,0.95
2023-02-26T08:39:41.431Z,0.80
2023-02-26T08:42:09.697Z,0.88
2023-02-26T08:44:36.802Z,0.88
2023-02-26T08:47:03.965Z,0.80
2023-02-26T08:49:31.009Z,0.80
2023-02-26T08:51:58.129Z,0.80
2023-02-26T08:54:25.373Z,0.82
2023-02-26T08:56:55.882Z,0.75
2023-02-26T08:59:22.742Z,0.90
2023-02-26T09:01:49.781Z,0.88
2023-02-26T09:04:16.695Z,0.90
2023-02-26T09:06:43.910Z,0.60
2023-02-26T09:09:11.100Z,1.13
2023-02-26T09:11:38.123Z,0.68
2023-02-26T09:14:05.615Z,0.70
2023-02-26T09:16:35.441Z,0.70
2023-02-26T09:19:03.736Z,0.73
2023-02-26T09:21:30.915Z,0.82
2023-02-26T09:23:57.695Z,0.55
2023-02-26T09:26:25.142Z,0.80
2023-02-26T09:28:52.150Z,0.90
2023-02-26T09:31:19.317Z,0.85
2023-02-26T09:33:46.134Z,0.60
2023-02-26T09:36:12.980Z,0.68
2023-02-26T09:38:39.916Z,1.05
2023-02-26T09:41:16.897Z,1.00
2023-02-26T09:44:02.568Z,0.60
2023-02-26T09:46:37.234Z,0.90
2023-02-26T09:49:19.713Z,0.60
2023-02-26T09:51:51.133Z,0.75
2023-02-26T09:54:24.937Z,0.82
2023-02-26T09:56:59.618Z,0.70
2023-02-26T09:59:30.654Z,0.70
2023-02-26T10:02:21.254Z,0.50
2023-02-26T10:05:06.517Z,0.63
2023-02-26T10:07:48.033Z,0.70
2023-02-26T10:10:36.489Z,0.82
2023-02-26T10:13:03.448Z,0.70
2023-02-26T10:15:44.063Z,0.90
2023-02-26T10:18:24.289Z,0.55
2023-02-26T10:21:01.478Z,0.75
2023-02-26T10:23:37.300Z,0.90
2023-02-26T10:26:25.118Z,0.80
2023-02-26T10:29:15.509Z,0.98
2023-02-26T10:32:03.673Z,0.82
2023-02-26T10:34:43.479Z,0.80
2023-02-26T10:37:10.430Z,0.80
2023-02-26T10:40:06.675Z,1.30
2023-02-26T10:42:50.970Z,1.00
2023-02-26T10:45:48.068Z,0.80
2023-02-26T10:48:24.334Z,1.00
2023-02-26T10:50:54.682Z,1.08
2023-02-26T10:53:22.202Z,0.98
2023-02-26T10:56:00.065Z,1.10
2023-02-26T10:58:27.409Z,1.23
2023-02-26T11:00:56.227Z,0.98
2023-02-26T11:03:35.987Z,1.00
2023-02-26T11:06:04.779Z,1.20
2023-02-26T11:08:36.838Z,1.55
2023-02-26T11:11:05.603Z,1.25
2023-02-26T11:13:34.219Z,1.25
2023-02-26T11:16:05.622Z,1.60
2023-02-26T11:18:49.791Z,1.50
2023-02-26T11:21:27.106Z,1.50
2023-02-26T11:24:32.664Z,1.20
2023-02-26T11:27:04.117Z,1.30
2023-02-26T11:29:43.236Z,1.10
2023-02-26T11:32:19.536Z,0.90
2023-02-26T11:34:49.199Z,1.08
2023-02-26T11:37:23.040Z,1.25
2023-02-26T11:39:58.422Z,1.10
2023-02-26T11:42:27.320Z,1.00
2023-02-26T11:44:54.848Z,1.00
2023-02-26T11:47:26.564Z,0.80
2023-02-26T11:50:04.649Z,1.00
2023-02-26T11:52:44.747Z,0.70
2023-02-26T11:55:26.886Z,1.05
2023-02-26T11:57:55.683Z,0.80
2023-02-26T12:00:35.612Z,0.80
2023-02-26T12:03:08.193Z,0.73
2023-02-26T12:05:36.875Z,0.70
2023-02-26T12:08:14.116Z,0.93
2023-02-26T12:11:14.291Z,0.50
2023-02-26T12:13:59.974Z,0.70
2023-02-26T12:17:03.526Z,0.57
2023-02-26T12:19:42.509Z,0.77
2023-02-26T12:22:26.806Z,0.63
2023-02-26T12:25:35.184Z,0.75
2023-02-26T12:28:30.881Z,0.73
2023-02-26T12:31:26.135Z,0.70
2023-02-26T12:33:56.239Z,0.60
2023-02-26T12:36:50.284Z,0.90
2023-02-26T12:39:32.038Z,0.90
2023-02-26T12:42:17.569Z,1.13
2023-02-26T12:44:56.323Z,1.20
2023-02-26T12:47:47.636Z,0.95
2023-02-26T12:50:30.655Z,1.15
2023-02-26T12:53:01.583Z,1.02
2023-02-26T12:55:55.724Z,1.17
2023-02-26T12:58:31.967Z,1.35
2023-02-26T13:01:16.784Z,1.17
2023-02-26T13:04:03.052Z,1.00
2023-02-26T13:07:01.308Z,1.15
2023-02-26T13:10:00.752Z,1.08
2023-02-26T13:12:55.744Z,0.93
2023-02-26T13:15:50.193Z,1.10
2023-02-26T13:18:37.819Z,1.02
2023-02-26T13:21:23.574Z,1.00
2023-02-26T13:23:53.008Z,0.80
2023-02-26T13:26:21.284Z,0.70
2023-02-26T13:29:10.638Z,0.65
2023-02-26T13:31:57.467Z,1.05
2023-02-26T13:34:58.806Z,0.88
2023-02-26T13:37:34.161Z,0.77
2023-02-26T13:40:41.559Z,0.50
2023-02-26T13:43:33.980Z,0.80
2023-02-26T13:46:13.189Z,0.60
2023-02-26T13:49:04.782Z,0.73
2023-02-26T13:51:42.673Z,0.73
2023-02-26T13:54:28.894Z,0.85
2023-02-26T13:57:06.632Z,0.98
2023-02-26T13:59:44.532Z,0.82
2023-02-26T14:02:20.614Z,0.63
2023-02-26T14:04:54.412Z,0.50
2023-02-26T14:07:53.572Z,0.50
2023-02-26T14:11:06.394Z,0.50
2023-02-26T14:13:39.835Z,0.90
2023-02-26T14:16:29.201Z,0.80
2023-02-26T14:19:19.640Z,0.90
2023-02-26T14:21:59.009Z,1.08
2023-02-26T14:24:36.832Z,0.90
2023-02-26T14:27:12.596Z,0.95
2023-02-26T14:30:00.368Z,0.70
2023-02-26T14:32:53.075Z,0.70
2023-02-26T14:35:22.192Z,1.25
2023-02-26T14:37:59.851Z,0.80
2023-02-26T14:40:30.319Z,0.82
2023-02-26T14:42:59.801Z,1.20
2023-02-26T14:45:36.728Z,1.10
2023-02-26T14:48:06.651Z,0.95
2023-02-26T14:50:48.930Z,0.80
2023-02-26T14:53:29.549Z,0.95
2023-02-26T14:56:15.746Z,1.20
2023-02-26T14:58:45.343Z,0.80
2023-02-26T15:01:21.311Z,1.23
2023-02-26T15:04:17.077Z,0.80
2023-02-26T15:07:10.004Z,0.77
2023-02-26T15:10:01.153Z,1.15
2023-02-26T15:12:40.194Z,0.90
2023-02-26T15:15:25.087Z,0.98
2023-02-26T15:18:24.406Z,1.00
2023-02-26T15:21:02.552Z,1.33
2023-02-26T15:23:38.979Z,0.98
2023-02-26T15:26:07.588Z,0.80
2023-02-26T15:28:40.882Z,0.90
2023-02-26T15:31:13.440Z,1.00
2023-02-26T15:33:40.653Z,1.20
2023-02-26T15:36:13.306Z,0.90
2023-02-26T15:38:46.986Z,0.85
2023-02-26T15:41:14.641Z,0.90
2023-02-26T15:43:48.381Z,0.60
2023-02-26T15:46:15.723Z,1.40
2023-02-26T15:48:44.261Z,1.27
2023-02-26T15:51:14.486Z,1.30
2023-02-26T15:53:47.628Z,1.50
2023-02-26T15:56:22.556Z,1.10
2023-02-26T15:58:53.517Z,0.90
2023-02-26T16:01:25.383Z,1.30
2023-02-26T16:03:56.281Z,1.08
2023-02-26T16:06:30.745Z,1.20
2023-02-26T16:08:58.228Z,1.25
2023-02-26T16:11:31.646Z,1.00
2023-02-26T16:13:59.371Z,1.10
2023-02-26T16:16:41.611Z,1.38
2023-02-26T16:19:14.365Z,0.90
2023-02-26T16:21:42.174Z,1.25
2023-02-26T16:24:15.333Z,0.95
2023-02-26T16:26:45.251Z,1.80
2023-02-26T16:29:22.845Z,1.25
2023-02-26T16:31:55.059Z,1.25
2023-02-26T16:34:30.296Z,1.30
2023-02-26T16:36:57.217Z,1.17
2023-02-26T16:39:27.781Z,1.08
2023-02-26T16:42:22.385Z,1.08
2023-02-26T16:44:57.182Z,1.23
2023-02-26T16:47:26.703Z,1.13
2023-02-26T16:49:53.894Z,1.48
2023-02-26T16:52:24.257Z,1.13
2023-02-26T16:54:59.514Z,1.30
2023-02-26T16:57:40.528Z,0.90
2023-02-26T17:00:17.722Z,1.10
2023-02-26T17:02:47.634Z,0.85
2023-02-26T17:05:26.923Z,1.45
2023-02-26T17:08:07.096Z,1.13
2023-02-26T17:10:45.754Z,0.90
2023-02-26T17:13:28.051Z,1.20
2023-02-26T17:16:01.383Z,1.13
2023-02-26T17:18:28.733Z,1.13
2023-02-26T17:20:55.762Z,1.10
2023-02-26T17:23:26.610Z,1.38
2023-02-26T17:25:56.233Z,0.80
2023-02-26T17:28:27.900Z,0.90
2023-02-26T17:30:55.131Z,1.00
2023-02-26T17:33:22.386Z,0.75
2023-02-26T17:35:49.936Z,1.20
2023-02-26T17:38:17.098Z,0.75
2023-02-26T17:40:47.715Z,1.42
2023-02-26T17:43:14.616Z,0.90
2023-02-26T17:45:41.576Z,0.85
2023-02-26T17:48:09.139Z,1.48
2023-02-26T17:50:56.056Z,1.48
2023-02-26T17:53:27.451Z,1.40
2023-02-26T17:55:56.452Z,1.88
2023-02-26T17:58:28.949Z,1.35
2023-02-26T18:00:56.510Z,1.10
2023-02-26T18:03:23.612Z,2.20
2023-02-26T18:05:52.698Z,2.22
2023-02-26T18:08:31.236Z,2.58
2023-02-26T18:10:59.316Z,2.67
2023-02-26T18:13:27.025Z,2.78
2023-02-26T18:15:56.650Z,3.20
2023-02-26T18:18:24.783Z,3.83
2023-02-26T18:20:52.849Z,2.97
2023-02-26T18:23:19.754Z,4.07
2023-02-26T18:25:49.440Z,3.53
2023-02-26T18:28:26.771Z,3.97
2023-02-26T18:30:55.280Z,4.68
2023-02-26T18:33:22.933Z,3.17
2023-02-26T18:35:55.076Z,3.17
2023-02-26T18:38:25.016Z,4.40
2023-02-26T18:40:52.512Z,4.03
2023-02-26T18:43:19.455Z,2.85
2023-02-26T18:45:48.774Z,2.85
2023-02-26T18:48:18.078Z,3.25
2023-02-26T18:50:46.386Z,2.42
2023-02-26T18:53:15.028Z,2.45
2023-02-26T18:55:41.842Z,2.67
2023-02-26T18:58:08.674Z,1.75
2023-02-26T19:00:35.556Z,2.28
2023-02-26T19:03:02.389Z,1.80
2023-02-26T19:05:29.178Z,2.17
2023-02-26T19:07:55.978Z,2.70
2023-02-26T19:10:22.924Z,2.15
2023-02-26T19:12:51.004Z,2.13
2023-02-26T19:15:18.542Z,1.80
2023-02-26T19:17:45.583Z,2.00
2023-02-26T19:20:13.347Z,2.80
2023-02-26T19:22:40.420Z,2.20
2023-02-26T19:25:07.979Z,1.73
2023-02-26T19:27:35.247Z,2.30
2023-02-26T19:30:03.867Z,2.38
2023-02-26T19:32:31.168Z,3.40
2023-02-26T19:34:58.150Z,2.88
2023-02-26T19:37:25.106Z,2.50
2023-02-26T19:39:51.969Z,2.58
2023-02-26T19:42:18.910Z,2.97
2023-02-26T19:44:45.924Z,3.15
2023-02-26T19:47:12.894Z,3.22
2023-02-26T19:49:39.720Z,3.33
2023-02-26T19:52:08.259Z,2.10
2023-02-26T19:54:35.422Z,2.55
2023-02-26T19:57:02.214Z,2.80
2023-02-26T19:59:29.120Z,2.15
2023-02-26T20:01:56.086Z,1.88
2023-02-26T20:04:22.904Z,2.30
2023-02-26T20:06:49.727Z,2.97
2023-02-26T20:09:19.052Z,2.70
2023-02-26T20:11:46.162Z,1.67
2023-02-26T20:14:14.235Z,1.83
2023-02-26T20:16:41.632Z,1.30
2023-02-26T20:19:08.655Z,1.42
2023-02-26T20:21:35.467Z,1.65
2023-02-26T20:24:02.465Z,1.20
2023-02-26T20:26:30.705Z,1.42
2023-02-26T20:28:57.568Z,1.40
2023-02-26T20:31:25.450Z,1.05
2023-02-26T20:33:52.972Z,1.67
2023-02-26T20:36:20.040Z,0.77
2023-02-26T20:38:46.888Z,1.38
2023-02-26T20:41:14.011Z,0.80
2023-02-26T20:43:40.944Z,0.90
2023-02-26T20:46:07.842Z,1.02
2023-02-26T20:48:36.973Z,1.10
2023-02-26T20:51:06.254Z,1.17
2023-02-26T20:53:33.739Z,1.27
2023-02-26T20:56:00.712Z,1.20
2023-02-26T20:58:27.719Z,1.40
2023-02-26T21:00:58.514Z,1.45
2023-02-26T21:03:25.922Z,1.10
2023-02-26T21:05:53.130Z,0.98
2023-02-26T21:08:20.237Z,1.33
2023-02-26T21:10:49.345Z,0.90
2023-02-26T21:13:16.130Z,1.30
2023-02-26T21:15:44.517Z,1.58
2023-02-26T21:18:11.507Z,1.13
2023-02-26T21:20:38.315Z,0.98
2023-02-26T21:23:05.100Z,1.33
2023-02-26T21:25:31.974Z,0.93
2023-02-26T21:27:59.218Z,1.20
2023-02-26T21:30:26.484Z,1.30
2023-02-26T21:32:53.314Z,0.90
2023-02-26T21:35:20.399Z,1.30
2023-02-26T21:37:47.246Z,1.20
2023-02-26T21:40:15.868Z,0.90
2023-02-26T21:42:43.554Z,1.05
2023-02-26T21:45:11.523Z,1.10
2023-02-26T21:47:38.598Z,1.23
2023-02-26T21:50:06.925Z,1.17
2023-02-26T21:52:33.883Z,1.10
2023-02-26T21:55:00.886Z,1.35
2023-02-26T21:57:27.986Z,1.40
2023-02-26T21:59:54.853Z,1.55
2023-02-26T22:02:21.973Z,2.10
2023-02-26T22:04:48.849Z,1.77
2023-02-26T22:07:15.636Z,1.70
2023-02-26T22:09:44.709Z,1.30
2023-02-26T22:12:12.974Z,1.73
2023-02-26T22:14:39.770Z,1.42
2023-02-26T22:17:06.857Z,2.40
2023-02-26T22:19:33.716Z,1.70
2023-02-26T22:22:00.860Z,1.70
2023-02-26T22:24:28.022Z,1.50
2023-02-26T22:26:54.860Z,1.60
2023-02-26T22:29:21.813Z,1.70
2023-02-26T22:31:48.782Z,1.45
2023-02-26T22:34:15.684Z,1.77
2023-02-26T22:36:42.749Z,1.52
2023-02-26T22:39:09.535Z,1.52
2023-02-26T22:41:36.937Z,1.60
2023-02-26T22:44:04.308Z,1.70
2023-02-26T22:46:32.297Z,1.50
2023-02-26T22:48:59.445Z,1.73
2023-02-26T22:51:28.530Z,1.85
2023-02-26T22:53:55.878Z,1.42
2023-02-26T22:56:22.728Z,1.90
2023-02-26T22:58:49.821Z,1.60
2023-02-26T23:01:16.926Z,1.60
2023-02-26T23:03:43.841Z,1.50
2023-02-26T23:06:10.732Z,2.10
2023-02-26T23:08:37.638Z,2.00
2023-02-26T23:11:05.359Z,1.88
2023-02-26T23:13:35.373Z,1.70
2023-02-26T23:16:04.233Z,2.42
2023-02-26T23:18:32.297Z,1.73
2023-02-26T23:20:59.201Z,1.45
2023-02-26T23:23:26.165Z,1.45
2023-02-26T23:25:53.140Z,1.90
2023-02-26T23:28:20.240Z,1.90
2023-02-26T23:30:47.103Z,1.92
2023-02-26T23:33:14.020Z,1.40
2023-02-26T23:35:40.840Z,1.60
2023-02-26T23:38:07.819Z,1.75
2023-02-26T23:40:34.674Z,1.65
2023-02-26T23:43:01.593Z,1.60
2023-02-26T23:45:28.422Z,1.90
2023-02-26T23:47:55.297Z,1.33
2023-02-26T23:50:22.957Z,1.35
2023-02-26T23:52:50.060Z,1.25
2023-02-26T23:55:17.351Z,1.40
2023-02-26T23:57:44.743Z,1.30
